Time;durP1;ratioP1;P1;durP2;ratioP2;P2;SDS_P1;SDS_P2;PMS_P1;PMS_P2;Temp;Humidity;BMP_temperature;BMP_pressure;BME280_temperature;BME280_humidity;BME280_pressure;Samples;Min_cycle;Max_cycle;Signal;HPM_P1;HPM_P2
2023/12/12 00:00:19;;;;;;;2.92;1.05;;;6.40;94.00;;;;;;6278942;22;20484;-84
2023/12/12 00:02:51;;;;;;;2.17;1.10;;;6.50;94.30;;;;;;6278619;22;20169;-86
2023/12/12 00:05:18;;;;;;;2.88;1.55;;;6.50;94.50;;;;;;6278741;22;20157;-87
2023/12/12 00:07:45;;;;;;;6.10;2.15;;;6.60;94.60;;;;;;6278875;22;20510;-87
2023/12/12 00:10:15;;;;;;;4.20;1.80;;;6.60;94.10;;;;;;6278397;22;20204;-86
2023/12/12 00:12:42;;;;;;;3.83;2.75;;;6.50;93.80;;;;;;6278138;22;20189;-86
2023/12/12 00:15:11;;;;;;;4.03;1.73;;;6.50;93.70;;;;;;6278723;22;20188;-87
2023/12/12 00:17:39;;;;;;;3.95;2.08;;;6.50;93.50;;;;;;6278459;22;20204;-87
2023/12/12 00:20:09;;;;;;;3.55;2.30;;;6.50;93.20;;;;;;6278520;22;20168;-87
2023/12/12 00:22:38;;;;;;;3.80;2.00;;;6.50;93.30;;;;;;6278869;22;20201;-87
2023/12/12 00:25:05;;;;;;;3.70;1.85;;;6.50;93.40;;;;;;6278533;22;20165;-87
2023/12/12 00:27:33;;;;;;;3.72;1.83;;;6.50;93.50;;;;;;6278713;22;20197;-87
2023/12/12 00:30:00;;;;;;;3.50;2.15;;;6.50;93.30;;;;;;6278591;22;20244;-86
2023/12/12 00:32:27;;;;;;;10.75;4.45;;;6.40;93.10;;;;;;6278438;22;20227;-86
2023/12/12 00:34:54;;;;;;;8.60;3.92;;;6.40;93.00;;;;;;6278077;22;20172;-86
2023/12/12 00:37:23;;;;;;;8.60;4.43;;;6.40;93.10;;;;;;6278221;22;20208;-87
2023/12/12 00:39:50;;;;;;;7.15;3.55;;;6.30;93.00;;;;;;6278059;22;20640;-86
2023/12/12 00:42:19;;;;;;;8.63;4.88;;;6.20;92.60;;;;;;6278545;22;20215;-87
2023/12/12 00:44:49;;;;;;;6.45;4.03;;;6.20;92.70;;;;;;6278239;22;20185;-87
2023/12/12 00:47:16;;;;;;;7.38;2.85;;;6.10;93.10;;;;;;6278577;22;20149;-86
2023/12/12 00:49:43;;;;;;;5.38;2.50;;;6.20;93.70;;;;;;6277998;22;20162;-87
2023/12/12 00:52:10;;;;;;;7.68;2.58;;;6.10;93.60;;;;;;6278158;22;20173;-86
2023/12/12 00:54:39;;;;;;;6.43;2.75;;;6.10;93.80;;;;;;6278103;22;20223;-87
2023/12/12 00:57:06;;;;;;;8.32;2.75;;;6.10;93.30;;;;;;6278563;22;20204;-86
2023/12/12 00:59:37;;;;;;;5.65;1.77;;;6.00;93.20;;;;;;6278501;22;20165;-85
2023/12/12 01:02:04;;;;;;;2.90;1.38;;;6.00;93.90;;;;;;6278006;22;20154;-86
2023/12/12 01:04:34;;;;;;;4.72;1.80;;;6.00;94.60;;;;;;6278140;22;20197;-86
2023/12/12 01:07:01;;;;;;;2.45;1.35;;;6.00;95.10;;;;;;6278343;22;20165;-85
2023/12/12 01:09:29;;;;;;;2.80;1.20;;;6.00;95.30;;;;;;6278332;22;20204;-86
2023/12/12 01:11:57;;;;;;;2.40;1.30;;;6.00;95.30;;;;;;6278182;22;20241;-86
2023/12/12 01:14:24;;;;;;;3.90;1.50;;;6.00;95.20;;;;;;6278401;22;20225;-86
2023/12/12 01:16:51;;;;;;;4.47;2.22;;;5.90;95.10;;;;;;6277893;22;20553;-86
2023/12/12 01:19:18;;;;;;;3.90;1.80;;;5.90;95.10;;;;;;6278146;22;20174;-86
2023/12/12 01:21:45;;;;;;;3.05;1.38;;;5.90;95.10;;;;;;6278235;22;20174;-86
2023/12/12 01:24:12;;;;;;;4.97;2.42;;;5.90;95.10;;;;;;6278166;22;20463;-87
2023/12/12 01:26:39;;;;;;;6.65;3.15;;;5.90;95.10;;;;;;6277543;22;20172;-87
2023/12/12 01:29:07;;;;;;;5.13;2.28;;;5.80;95.10;;;;;;6277712;22;20172;-86
2023/12/12 01:31:34;;;;;;;4.00;1.80;;;5.80;94.80;;;;;;6278024;22;20240;-87
2023/12/12 01:34:01;;;;;;;4.97;2.30;;;5.70;94.30;;;;;;6277283;22;20221;-87
2023/12/12 01:36:28;;;;;;;3.28;1.77;;;5.60;94.20;;;;;;6277441;22;20165;-86
2023/12/12 01:38:55;;;;;;;4.38;2.20;;;5.50;94.10;;;;;;6278119;22;20200;-86
2023/12/12 01:41:22;;;;;;;5.65;2.35;;;5.50;94.20;;;;;;6278030;22;20173;-87
2023/12/12 01:43:49;;;;;;;6.43;2.47;;;5.50;94.10;;;;;;6278031;22;20165;-87
2023/12/12 01:46:19;;;;;;;3.50;2.30;;;5.50;94.00;;;;;;6278221;22;20212;-87
2023/12/12 01:48:47;;;;;;;3.20;1.92;;;5.50;94.20;;;;;;6277796;22;20168;-87
2023/12/12 01:51:15;;;;;;;5.43;2.55;;;5.50;94.70;;;;;;6277836;22;20197;-85
2023/12/12 01:53:46;;;;;;;3.50;2.10;;;5.50;94.70;;;;;;6277506;22;20221;-84
2023/12/12 01:56:15;;;;;;;4.18;1.92;;;5.50;94.50;;;;;;6277586;22;20186;-85
2023/12/12 01:58:46;;;;;;;4.00;1.88;;;5.50;94.60;;;;;;6277446;22;20624;-85
2023/12/12 02:01:14;;;;;;;6.05;1.60;;;5.50;94.70;;;;;;6277427;22;20193;-85
2023/12/12 02:03:43;;;;;;;4.15;1.48;;;5.50;94.40;;;;;;6277365;22;20211;-86
2023/12/12 02:06:13;;;;;;;3.08;1.40;;;5.50;94.40;;;;;;6277374;22;20227;-85
2023/12/12 02:08:42;;;;;;;2.53;1.45;;;5.50;94.60;;;;;;6277722;22;20166;-86
2023/12/12 02:11:09;;;;;;;3.28;1.50;;;5.50;94.60;;;;;;6277485;22;20162;-85
2023/12/12 02:13:36;;;;;;;4.05;1.65;;;5.50;94.80;;;;;;6277580;22;20223;-85
2023/12/12 02:16:03;;;;;;;2.65;1.23;;;5.50;94.80;;;;;;6277004;22;20241;-84
2023/12/12 02:18:30;;;;;;;3.10;1.58;;;5.50;95.20;;;;;;6277588;22;20168;-86
2023/12/12 02:21:00;;;;;;;3.08;1.40;;;5.50;94.50;;;;;;6277156;22;20165;-86
2023/12/12 02:23:28;;;;;;;3.20;1.67;;;5.50;94.40;;;;;;6277509;22;20224;-86
2023/12/12 02:25:56;;;;;;;2.95;1.17;;;5.60;93.80;;;;;;6277625;22;20200;-86
2023/12/12 02:28:23;;;;;;;2.65;1.20;;;5.50;93.50;;;;;;6277222;22;20245;-85
2023/12/12 02:30:51;;;;;;;3.05;1.35;;;5.40;93.70;;;;;;6276997;22;20240;-85
2023/12/12 02:33:18;;;;;;;2.50;1.27;;;5.40;93.60;;;;;;6276973;22;20635;-84
2023/12/12 02:35:44;;;;;;;2.63;1.55;;;5.50;93.40;;;;;;6277081;22;20169;-86
2023/12/12 02:38:13;;;;;;;3.75;1.45;;;5.50;93.20;;;;;;6277778;22;20169;-85
2023/12/12 02:40:41;;;;;;;3.33;1.42;;;5.50;93.40;;;;;;6276793;22;20173;-86
2023/12/12 02:43:08;;;;;;;2.63;1.40;;;5.40;93.00;;;;;;6277438;22;20193;-87
2023/12/12 02:45:35;;;;;;;2.60;1.48;;;5.40;93.40;;;;;;6276895;22;20197;-86
2023/12/12 02:48:02;;;;;;;2.50;1.42;;;5.40;93.60;;;;;;6276913;22;20197;-86
2023/12/12 02:50:29;;;;;;;2.00;0.90;;;5.40;93.60;;;;;;6277188;22;20200;-85
2023/12/12 02:52:56;;;;;;;2.78;1.23;;;5.40;93.70;;;;;;6277235;22;20193;-85
2023/12/12 02:55:23;;;;;;;3.05;1.33;;;5.40;93.80;;;;;;6276845;22;20260;-85
2023/12/12 02:57:52;;;;;;;3.70;0.95;;;5.40;94.00;;;;;;6276842;22;20173;-85
2023/12/12 03:00:19;;;;;;;3.17;1.38;;;5.40;94.20;;;;;;6277276;22;20208;-85
2023/12/12 03:02:46;;;;;;;3.22;2.00;;;5.50;94.40;;;;;;6276838;22;20166;-84
2023/12/12 03:05:13;;;;;;;2.70;1.50;;;5.50;94.20;;;;;;6277469;22;20486;-86
2023/12/12 03:07:40;;;;;;;2.65;1.25;;;5.50;93.20;;;;;;6276798;22;20240;-86
2023/12/12 03:10:08;;;;;;;2.65;1.25;;;5.50;92.50;;;;;;6277077;22;20245;-85
2023/12/12 03:12:35;;;;;;;2.42;1.40;;;5.30;92.40;;;;;;6277187;22;20193;-86
2023/12/12 03:15:05;;;;;;;2.10;1.08;;;5.20;92.50;;;;;;6277134;22;20264;-86
2023/12/12 03:17:32;;;;;;;2.20;1.23;;;5.10;92.90;;;;;;6277219;22;20169;-86
2023/12/12 03:19:59;;;;;;;5.00;1.70;;;5.00;93.50;;;;;;6276741;22;20219;-85
2023/12/12 03:22:26;;;;;;;2.58;1.27;;;5.00;93.40;;;;;;6277314;22;20172;-86
2023/12/12 03:24:52;;;;;;;2.95;1.27;;;4.90;93.50;;;;;;6277230;22;20169;-87
2023/12/12 03:27:19;;;;;;;3.03;1.55;;;4.90;93.70;;;;;;6276863;22;20208;-87
2023/12/12 03:29:45;;;;;;;3.15;1.40;;;4.90;94.40;;;;;;6276919;22;20479;-87
2023/12/12 03:32:14;;;;;;;2.47;1.40;;;4.90;94.20;;;;;;6277173;22;20169;-87
2023/12/12 03:34:41;;;;;;;2.63;1.50;;;4.90;94.30;;;;;;6276745;22;20472;-87
2023/12/12 03:37:08;;;;;;;2.80;1.60;;;5.00;94.40;;;;;;6277358;22;20540;-87
2023/12/12 03:39:37;;;;;;;2.42;1.23;;;5.00;94.30;;;;;;6277094;22;20173;-86
2023/12/12 03:42:04;;;;;;;2.70;1.52;;;5.00;94.50;;;;;;6276647;22;20683;-86
2023/12/12 03:44:31;;;;;;;3.05;1.75;;;5.00;94.30;;;;;;6277002;22;20246;-87
2023/12/12 03:46:58;;;;;;;3.03;1.70;;;5.00;94.50;;;;;;6276732;22;20154;-86
2023/12/12 03:49:27;;;;;;;4.13;1.80;;;5.00;94.40;;;;;;6276904;22;20188;-87
2023/12/12 03:51:54;;;;;;;3.88;2.03;;;5.10;94.50;;;;;;6274141;22;20641;-86
2023/12/12 03:54:21;;;;;;;2.80;1.92;;;5.10;94.50;;;;;;6276784;22;20186;-87
2023/12/12 03:56:47;;;;;;;2.58;1.33;;;5.10;94.50;;;;;;6277048;22;20166;-87
2023/12/12 03:59:14;;;;;;;2.88;1.73;;;5.20;94.40;;;;;;6277010;22;20538;-87
2023/12/12 04:01:41;;;;;;;5.30;2.10;;;5.20;94.20;;;;;;6277236;22;20540;-87
2023/12/12 04:04:08;;;;;;;3.25;1.55;;;5.20;94.10;;;;;;6276694;22;20169;-87
2023/12/12 04:06:44;;;;;;;2.35;1.40;;;5.20;94.10;;;;;;6276655;22;20166;-87
2023/12/12 04:09:11;;;;;;;2.65;1.33;;;5.20;94.10;;;;;;6276835;22;20181;-86
2023/12/12 04:11:38;;;;;;;3.75;1.92;;;5.20;94.00;;;;;;6276985;22;20216;-87
2023/12/12 04:14:05;;;;;;;3.00;1.67;;;5.20;93.90;;;;;;6277483;22;20288;-86
2023/12/12 04:16:32;;;;;;;2.70;1.75;;;5.20;93.90;;;;;;6278406;22;20212;-86
2023/12/12 04:18:59;;;;;;;2.50;1.40;;;5.30;93.80;;;;;;6278263;22;20204;-86
2023/12/12 04:21:26;;;;;;;2.70;1.65;;;5.20;93.70;;;;;;6278228;22;20197;-86
2023/12/12 04:23:54;;;;;;;3.25;1.52;;;5.20;93.70;;;;;;6278489;22;20608;-87
2023/12/12 04:26:21;;;;;;;4.50;2.50;;;5.20;93.50;;;;;;6278683;22;20555;-86
2023/12/12 04:28:48;;;;;;;3.80;1.83;;;5.20;93.50;;;;;;6278748;22;20539;-86
2023/12/12 04:31:16;;;;;;;3.05;1.98;;;5.20;93.60;;;;;;6278357;22;20240;-85
2023/12/12 04:33:44;;;;;;;3.03;1.58;;;5.20;93.60;;;;;;6278201;22;20168;-87
2023/12/12 04:36:14;;;;;;;2.20;1.20;;;5.20;93.60;;;;;;6278632;22;20193;-86
2023/12/12 04:38:41;;;;;;;2.63;1.40;;;5.30;93.70;;;;;;6277958;22;20641;-87
2023/12/12 04:41:10;;;;;;;2.90;1.80;;;5.30;93.70;;;;;;6278142;22;20240;-86
2023/12/12 04:43:37;;;;;;;3.40;1.67;;;5.40;93.70;;;;;;6278145;22;20631;-86
2023/12/12 04:46:04;;;;;;;4.00;1.42;;;5.40;93.80;;;;;;6278278;22;20695;-86
2023/12/12 04:48:31;;;;;;;2.67;1.40;;;5.40;93.80;;;;;;6278282;22;20276;-86
2023/12/12 04:51:00;;;;;;;3.25;1.42;;;5.40;93.80;;;;;;6278075;22;20166;-87
2023/12/12 04:53:27;;;;;;;5.18;2.70;;;5.40;93.90;;;;;;6278032;22;20212;-86
2023/12/12 04:55:54;;;;;;;2.60;1.50;;;5.40;93.80;;;;;;6278359;22;20230;-87
2023/12/12 04:58:22;;;;;;;3.10;2.00;;;5.40;93.80;;;;;;6277843;22;20245;-86
2023/12/12 05:00:49;;;;;;;3.63;1.55;;;5.50;93.60;;;;;;6278060;22;20172;-86
2023/12/12 05:03:16;;;;;;;2.85;1.67;;;5.50;93.10;;;;;;6278231;22;20165;-84
2023/12/12 05:05:44;;;;;;;4.22;2.40;;;5.40;92.80;;;;;;6277790;22;20172;-87
2023/12/12 05:08:12;;;;;;;6.22;4.07;;;5.50;92.80;;;;;;6278109;22;20189;-86
2023/12/12 05:10:39;;;;;;;14.20;8.75;;;5.40;93.00;;;;;;6278310;22;20261;-87
2023/12/12 05:13:06;;;;;;;11.50;7.88;;;5.50;92.90;;;;;;6277801;22;20211;-86
2023/12/12 05:15:34;;;;;;;12.82;6.93;;;5.50;93.10;;;;;;6278187;22;20181;-86
2023/12/12 05:18:00;;;;;;;11.15;6.57;;;5.50;93.20;;;;;;6277668;22;20621;-85
2023/12/12 05:20:27;;;;;;;7.15;4.38;;;5.50;93.30;;;;;;6278105;22;20212;-85
2023/12/12 05:22:54;;;;;;;8.77;4.00;;;5.50;93.20;;;;;;6278216;22;20193;-86
2023/12/12 05:25:21;;;;;;;6.90;4.45;;;5.50;93.10;;;;;;6277572;22;20630;-86
2023/12/12 05:27:48;;;;;;;6.15;4.07;;;5.50;93.20;;;;;;6278015;22;20193;-86
2023/12/12 05:30:17;;;;;;;6.78;4.07;;;5.50;93.40;;;;;;6277314;22;20268;-86
2023/12/12 05:32:46;;;;;;;3.95;2.97;;;5.50;93.50;;;;;;6277672;22;20704;-86
2023/12/12 05:35:19;;;;;;;3.17;2.40;;;5.60;93.40;;;;;;6278174;22;20185;-86
2023/12/12 05:37:46;;;;;;;4.20;2.70;;;5.60;93.30;;;;;;6277635;22;20240;-86
2023/12/12 05:40:15;;;;;;;5.28;3.25;;;5.60;93.30;;;;;;6277568;22;20219;-86
2023/12/12 05:42:43;;;;;;;5.25;3.45;;;5.60;93.00;;;;;;6277649;22;20794;-86
2023/12/12 05:45:10;;;;;;;5.78;3.80;;;5.60;93.00;;;;;;6277966;22;20185;-86
2023/12/12 05:47:37;;;;;;;5.45;3.83;;;5.70;92.60;;;;;;6277948;22;20239;-86
2023/12/12 05:50:10;;;;;;;5.57;3.92;;;5.60;92.50;;;;;;6277661;22;20468;-86
2023/12/12 05:52:37;;;;;;;4.88;3.95;;;5.60;92.50;;;;;;6277979;22;20153;-84
2023/12/12 05:55:05;;;;;;;7.70;4.35;;;5.60;92.50;;;;;;6277876;22;20264;-86
2023/12/12 05:57:33;;;;;;;5.75;3.75;;;5.60;92.60;;;;;;6277406;22;20166;-86
2023/12/12 05:59:59;;;;;;;6.22;4.00;;;5.50;92.60;;;;;;6277352;22;20183;-86
2023/12/12 06:02:26;;;;;;;6.88;4.30;;;5.50;92.80;;;;;;6277730;22;20196;-86
2023/12/12 06:04:53;;;;;;;8.05;4.82;;;5.50;93.00;;;;;;6277684;22;20173;-86
2023/12/12 06:07:22;;;;;;;7.22;4.05;;;5.50;92.80;;;;;;6277708;22;20165;-86
2023/12/12 06:09:49;;;;;;;6.97;5.10;;;5.50;93.10;;;;;;6277558;22;20161;-86
2023/12/12 06:12:17;;;;;;;9.98;4.60;;;5.50;93.20;;;;;;6277697;22;20166;-86
2023/12/12 06:14:44;;;;;;;8.20;4.95;;;5.50;93.10;;;;;;6277583;22;20196;-86
2023/12/12 06:17:12;;;;;;;7.05;5.32;;;5.50;93.20;;;;;;6277529;22;20193;-86
2023/12/12 06:19:39;;;;;;;8.50;6.00;;;5.50;93.30;;;;;;6276757;22;20171;-87
2023/12/12 06:22:07;;;;;;;13.23;5.40;;;5.50;93.40;;;;;;6276701;22;20201;-86
2023/12/12 06:24:36;;;;;;;6.10;4.60;;;5.60;93.50;;;;;;6276986;22;20244;-86
2023/12/12 06:27:03;;;;;;;8.32;4.45;;;5.60;93.50;;;;;;6273314;22;20508;-85
2023/12/12 06:29:30;;;;;;;5.85;5.00;;;5.60;93.20;;;;;;6277033;22;20211;-85
2023/12/12 06:31:57;;;;;;;6.90;4.03;;;5.60;93.20;;;;;;6277098;22;20187;-85
2023/12/12 06:34:24;;;;;;;7.80;3.88;;;5.60;93.20;;;;;;6276881;22;20166;-85
2023/12/12 06:36:51;;;;;;;4.97;4.30;;;5.60;93.30;;;;;;6276920;22;20219;-86
2023/12/12 06:39:18;;;;;;;7.75;4.00;;;5.60;93.40;;;;;;6277276;22;20197;-86
2023/12/12 06:41:47;;;;;;;9.63;5.45;;;5.60;93.60;;;;;;6277364;22;20481;-87
2023/12/12 06:44:14;;;;;;;7.35;4.55;;;5.60;93.70;;;;;;6277093;22;20608;-86
2023/12/12 06:46:41;;;;;;;6.07;4.40;;;5.60;93.80;;;;;;6277323;22;20232;-86
2023/12/12 06:49:09;;;;;;;7.15;4.20;;;5.70;93.90;;;;;;6276774;22;20197;-86
2023/12/12 06:51:36;;;;;;;5.18;3.65;;;5.70;93.80;;;;;;6276924;22;20223;-86
2023/12/12 06:54:03;;;;;;;5.05;3.42;;;5.60;93.90;;;;;;6277278;22;20166;-86
2023/12/12 06:56:31;;;;;;;8.82;3.65;;;5.70;93.90;;;;;;6276550;22;20181;-86
2023/12/12 06:58:59;;;;;;;5.45;3.47;;;5.70;93.80;;;;;;6276912;22;20608;-85
2023/12/12 07:01:26;;;;;;;4.72;3.55;;;5.80;93.70;;;;;;6277347;22;20237;-85
2023/12/12 07:03:54;;;;;;;4.45;3.50;;;5.80;93.50;;;;;;6275390;22;20620;-85
2023/12/12 07:06:21;;;;;;;7.25;5.15;;;5.80;93.30;;;;;;6277215;22;20212;-86
2023/12/12 07:08:49;;;;;;;6.15;4.03;;;5.80;93.10;;;;;;6277352;22;20169;-86
2023/12/12 07:11:16;;;;;;;6.25;3.72;;;5.80;93.10;;;;;;6276954;22;20413;-86
2023/12/12 07:13:43;;;;;;;9.25;3.60;;;5.80;93.20;;;;;;6276781;22;20197;-86
2023/12/12 07:16:12;;;;;;;5.20;4.10;;;5.90;92.70;;;;;;6276799;22;20502;-86
2023/12/12 07:18:39;;;;;;;6.10;3.95;;;5.90;92.20;;;;;;6276990;22;20244;-86
2023/12/12 07:21:06;;;;;;;6.10;4.25;;;5.70;92.30;;;;;;6276827;22;20166;-86
2023/12/12 07:23:33;;;;;;;5.15;4.18;;;5.70;92.50;;;;;;6276555;22;20196;-86
2023/12/12 07:26:00;;;;;;;4.10;3.58;;;5.70;92.30;;;;;;6276603;22;20173;-85
2023/12/12 07:28:27;;;;;;;5.07;2.80;;;5.70;92.60;;;;;;6276466;22;20201;-86
2023/12/12 07:30:54;;;;;;;5.90;3.40;;;5.70;92.70;;;;;;6276836;22;20211;-85
2023/12/12 07:33:23;;;;;;;6.30;3.78;;;5.80;92.80;;;;;;6276713;22;20219;-85
2023/12/12 07:35:50;;;;;;;4.43;3.35;;;5.90;92.40;;;;;;6276702;22;20188;-85
2023/12/12 07:38:17;;;;;;;4.00;3.20;;;5.80;92.20;;;;;;6272372;22;20200;-86
2023/12/12 07:40:44;;;;;;;4.65;3.47;;;5.80;92.60;;;;;;6275713;22;20162;-85
2023/12/12 07:43:11;;;;;;;5.05;3.45;;;5.70;93.00;;;;;;6276301;22;20192;-86
2023/12/12 07:45:39;;;;;;;5.85;3.90;;;5.80;93.40;;;;;;6276212;22;20239;-86
2023/12/12 07:48:06;;;;;;;11.75;7.60;;;5.80;93.60;;;;;;6276118;22;20628;-86
2023/12/12 07:50:34;;;;;;;17.80;9.80;;;5.80;93.70;;;;;;6277307;22;20201;-85
2023/12/12 07:53:04;;;;;;;6.85;4.63;;;5.90;94.00;;;;;;6278165;22;20222;-86
2023/12/12 07:55:31;;;;;;;11.55;6.38;;;6.00;94.10;;;;;;6276647;22;20221;-86
2023/12/12 07:57:58;;;;;;;8.85;5.63;;;6.10;94.10;;;;;;6277944;22;20204;-86
2023/12/12 08:00:26;;;;;;;19.40;11.82;;;6.10;94.00;;;;;;6277949;22;20219;-86
2023/12/12 08:02:53;;;;;;;14.70;8.48;;;6.20;93.90;;;;;;6278118;22;20168;-85
2023/12/12 08:05:20;;;;;;;29.98;18.85;;;6.20;93.60;;;;;;6278520;22;20165;-85
2023/12/12 08:07:48;;;;;;;19.15;12.57;;;6.30;93.50;;;;;;6273205;22;20655;-86
2023/12/12 08:10:15;;;;;;;14.88;10.50;;;6.40;92.90;;;;;;6274086;22;20161;-85
2023/12/12 08:12:42;;;;;;;11.93;6.57;;;6.30;92.80;;;;;;6276478;22;20244;-84
2023/12/12 08:15:09;;;;;;;4.63;3.45;;;6.30;92.50;;;;;;6276997;22;20166;-85
2023/12/12 08:17:36;;;;;;;4.60;2.40;;;6.30;92.70;;;;;;6277332;22;20177;-86
2023/12/12 08:20:04;;;;;;;3.30;2.05;;;6.30;93.20;;;;;;6277283;22;20208;-86
2023/12/12 08:22:31;;;;;;;4.07;2.35;;;6.30;93.60;;;;;;6276942;22;20525;-86
2023/12/12 08:25:00;;;;;;;5.90;2.20;;;6.40;93.60;;;;;;6278202;22;20465;-86
2023/12/12 08:27:27;;;;;;;3.88;2.10;;;6.50;93.50;;;;;;6278414;22;20265;-85
2023/12/12 08:29:54;;;;;;;7.10;4.45;;;6.50;93.50;;;;;;6278213;22;20539;-86
2023/12/12 08:32:21;;;;;;;4.03;2.45;;;6.60;93.70;;;;;;6278708;22;20245;-86
2023/12/12 08:34:48;;;;;;;5.82;3.92;;;6.60;93.60;;;;;;6278253;22;20677;-86
2023/12/12 08:37:16;;;;;;;5.70;3.25;;;6.70;93.70;;;;;;6278223;22;20233;-86
2023/12/12 08:39:43;;;;;;;4.05;2.30;;;6.70;93.70;;;;;;6277899;22;20170;-87
2023/12/12 08:42:11;;;;;;;3.88;1.70;;;6.80;93.40;;;;;;6278396;22;20165;-86
2023/12/12 08:44:38;;;;;;;3.50;3.15;;;7.00;92.30;;;;;;6278067;22;20220;-86
2023/12/12 08:47:06;;;;;;;4.10;2.47;;;7.10;92.20;;;;;;6278072;22;20166;-87
2023/12/12 08:49:34;;;;;;;2.60;2.10;;;7.10;92.30;;;;;;6278405;22;20201;-87
2023/12/12 08:52:02;;;;;;;4.28;2.30;;;7.20;92.50;;;;;;6277787;22;20624;-87
2023/12/12 08:54:29;;;;;;;4.18;2.70;;;7.20;92.60;;;;;;6278184;22;20185;-87
2023/12/12 08:56:56;;;;;;;3.38;2.05;;;7.30;92.70;;;;;;6278276;22;20192;-86
2023/12/12 08:59:24;;;;;;;3.30;2.42;;;7.30;92.80;;;;;;6278095;22;20170;-86
2023/12/12 09:01:51;;;;;;;4.53;2.80;;;7.40;93.10;;;;;;6277059;22;20609;-87
2023/12/12 09:04:18;;;;;;;3.80;3.05;;;7.40;93.20;;;;;;6277601;22;20244;-85
2023/12/12 09:06:45;;;;;;;4.53;2.97;;;7.40;93.10;;;;;;6278092;22;20201;-85
2023/12/12 09:09:12;;;;;;;8.02;3.90;;;7.50;93.00;;;;;;6277825;22;20169;-85
2023/12/12 09:11:40;;;;;;;7.43;4.78;;;7.60;92.60;;;;;;6277820;22;20208;-85
2023/12/12 09:14:07;;;;;;;8.13;4.60;;;7.70;92.40;;;;;;6278026;22;20241;-85
2023/12/12 09:16:35;;;;;;;7.75;3.85;;;7.50;92.60;;;;;;6278166;22;20552;-85
2023/12/12 09:19:02;;;;;;;7.07;4.15;;;7.50;92.70;;;;;;6277892;22;20240;-85
2023/12/12 09:21:33;;;;;;;7.40;4.10;;;7.40;93.00;;;;;;6278386;22;21056;-85
2023/12/12 09:24:00;;;;;;;5.75;4.25;;;7.50;93.10;;;;;;6277998;22;20158;-84
2023/12/12 09:26:27;;;;;;;5.05;3.38;;;7.50;93.40;;;;;;6277595;22;20543;-85
2023/12/12 09:28:54;;;;;;;6.57;4.70;;;7.40;94.30;;;;;;6277245;22;20196;-85
2023/12/12 09:31:26;;;;;;;5.97;4.63;;;7.40;95.00;;;;;;6277418;22;20193;-84
2023/12/12 09:33:55;;;;;;;4.32;2.85;;;7.40;95.30;;;;;;6277804;22;20200;-84
2023/12/12 09:36:22;;;;;;;3.38;2.38;;;7.50;95.60;;;;;;6277235;22;20221;-85
2023/12/12 09:38:49;;;;;;;2.83;1.88;;;7.60;95.80;;;;;;6277689;22;20192;-85
2023/12/12 09:41:21;;;;;;;4.40;2.42;;;7.80;95.60;;;;;;6277635;22;20165;-86
2023/12/12 09:43:49;;;;;;;5.85;4.88;;;7.80;95.40;;;;;;6277734;22;20172;-85
2023/12/12 09:46:16;;;;;;;8.75;6.68;;;7.80;95.70;;;;;;6277310;22;20236;-86
2023/12/12 09:48:45;;;;;;;8.13;7.20;;;7.80;95.80;;;;;;6277738;22;20165;-86
2023/12/12 09:51:15;;;;;;;6.82;5.85;;;7.80;96.10;;;;;;6277308;22;20162;-85
2023/12/12 09:53:46;;;;;;;7.60;4.93;;;7.90;96.30;;;;;;6277399;22;20252;-86
2023/12/12 09:56:15;;;;;;;4.20;3.03;;;8.00;96.60;;;;;;6277125;22;20177;-85
2023/12/12 09:58:43;;;;;;;3.65;1.80;;;8.10;96.30;;;;;;6277090;22;20256;-86
2023/12/12 10:01:11;;;;;;;3.80;2.22;;;8.10;95.90;;;;;;6277842;22;20165;-85
2023/12/12 10:03:39;;;;;;;2.92;1.90;;;8.10;95.90;;;;;;6277531;22;20221;-86
2023/12/12 10:06:09;;;;;;;3.10;1.55;;;8.10;96.00;;;;;;6277833;22;20165;-86
2023/12/12 10:08:38;;;;;;;3.30;2.10;;;8.10;96.10;;;;;;6277300;22;20169;-85
2023/12/12 10:11:06;;;;;;;4.18;1.80;;;8.10;96.10;;;;;;6276826;22;20172;-84
2023/12/12 10:13:48;;;;;;;4.15;2.28;;;8.20;96.10;;;;;;6276622;22;20169;-86
2023/12/12 10:16:15;;;;;;;3.25;2.33;;;8.20;96.10;;;;;;6277361;22;20504;-86
2023/12/12 10:18:44;;;;;;;3.17;1.83;;;8.30;95.90;;;;;;6276859;22;20249;-86
2023/12/12 10:21:16;;;;;;;4.10;1.35;;;8.40;95.70;;;;;;6277325;22;20200;-84
2023/12/12 10:23:46;;;;;;;2.30;1.25;;;8.40;95.60;;;;;;6277146;22;20232;-86
2023/12/12 10:26:13;;;;;;;3.00;1.45;;;8.40;95.90;;;;;;6277464;22;20165;-86
2023/12/12 10:28:41;;;;;;;3.25;1.17;;;8.50;95.90;;;;;;6276810;22;20166;-86
2023/12/12 10:31:09;;;;;;;2.80;1.60;;;8.60;95.50;;;;;;6276959;22;20485;-85
2023/12/12 10:33:38;;;;;;;2.90;1.70;;;8.70;95.50;;;;;;6277197;22;20162;-86
2023/12/12 10:36:09;;;;;;;2.60;1.40;;;8.80;95.20;;;;;;6276736;22;20185;-86
2023/12/12 10:38:37;;;;;;;3.15;1.90;;;8.90;94.60;;;;;;6276935;22;20150;-85
2023/12/12 10:41:13;;;;;;;3.25;1.95;;;8.90;94.20;;;;;;6277256;22;20162;-85
2023/12/12 10:43:41;;;;;;;3.10;1.70;;;8.90;94.50;;;;;;6277152;22;20532;-87
2023/12/12 10:46:11;;;;;;;3.33;1.65;;;8.80;94.60;;;;;;6277070;22;20196;-86
2023/12/12 10:48:43;;;;;;;4.22;2.35;;;8.80;94.90;;;;;;6277108;22;20490;-86
2023/12/12 10:51:11;;;;;;;2.95;1.75;;;8.80;95.10;;;;;;6276609;22;20241;-87
2023/12/12 10:53:38;;;;;;;3.25;2.20;;;8.80;95.30;;;;;;6276432;22;20638;-86
2023/12/12 10:56:08;;;;;;;4.97;2.03;;;8.80;95.40;;;;;;6276909;22;20659;-86
2023/12/12 10:58:37;;;;;;;3.30;1.63;;;8.80;95.60;;;;;;6276268;22;20690;-85
2023/12/12 11:01:06;;;;;;;3.40;2.50;;;8.90;95.60;;;;;;6277052;22;20248;-86
2023/12/12 11:03:35;;;;;;;4.25;2.65;;;8.80;95.20;;;;;;6277221;22;20200;-86
2023/12/12 11:06:02;;;;;;;3.45;1.77;;;8.80;95.30;;;;;;6276617;22;20196;-85
2023/12/12 11:08:30;;;;;;;3.35;2.72;;;8.80;95.20;;;;;;6277109;22;20193;-86
2023/12/12 11:10:57;;;;;;;4.47;2.30;;;8.80;95.20;;;;;;6276637;22;20197;-85
2023/12/12 11:13:28;;;;;;;3.65;2.58;;;8.70;95.50;;;;;;6276855;22;20204;-86
2023/12/12 11:15:59;;;;;;;3.75;2.30;;;8.80;95.80;;;;;;6276719;22;20166;-85
2023/12/12 11:18:27;;;;;;;4.72;3.22;;;8.70;96.00;;;;;;6277079;22;20156;-85
2023/12/12 11:20:54;;;;;;;5.35;3.70;;;8.70;96.10;;;;;;6276436;22;20196;-85
2023/12/12 11:23:55;;;;;;;5.03;3.20;;;8.70;96.30;;;;;;6276524;22;20632;-85
2023/12/12 11:26:24;;;;;;;36.88;18.63;;;8.70;96.50;;;;;;6279067;22;20165;-85
2023/12/12 11:28:53;;;;;;;24.77;10.57;;;8.70;96.60;;;;;;6278603;22;20161;-84
2023/12/12 11:31:26;;;;;;;7.93;5.30;;;8.70;96.70;;;;;;6278546;22;20285;-85
2023/12/12 11:34:04;;;;;;;5.10;3.00;;;8.70;96.80;;;;;;6278998;22;20165;-84
2023/12/12 11:36:48;;;;;;;5.75;3.30;;;8.70;96.50;;;;;;6278842;22;20189;-85
2023/12/12 11:39:23;;;;;;;4.28;2.50;;;8.80;96.30;;;;;;6279126;22;20177;-84
2023/12/12 11:41:51;;;;;;;3.63;2.22;;;8.80;96.20;;;;;;6278945;22;20192;-85
2023/12/12 11:44:19;;;;;;;4.00;1.80;;;8.70;96.40;;;;;;6277080;22;20243;-84
2023/12/12 11:46:48;;;;;;;2.75;1.85;;;8.70;96.60;;;;;;6278413;22;20169;-84
2023/12/12 11:49:25;;;;;;;2.75;2.03;;;8.70;96.90;;;;;;6279005;22;20165;-85
2023/12/12 11:51:53;;;;;;;3.15;1.80;;;8.70;97.20;;;;;;6278409;22;20185;-86
2023/12/12 11:54:24;;;;;;;3.20;1.95;;;8.70;97.40;;;;;;6279078;22;20252;-85
2023/12/12 11:56:57;;;;;;;4.22;2.20;;;8.80;97.30;;;;;;6278295;22;20186;-85
2023/12/12 11:59:24;;;;;;;4.78;1.90;;;8.70;97.60;;;;;;6278750;22;20154;-85
2023/12/12 12:01:53;;;;;;;4.53;2.40;;;8.70;98.00;;;;;;6278666;22;20197;-86
2023/12/12 12:04:21;;;;;;;3.08;1.85;;;8.80;98.00;;;;;;6278737;22;20165;-86
2023/12/12 12:06:49;;;;;;;4.53;2.33;;;8.80;98.30;;;;;;6278256;22;20659;-85
2023/12/12 12:09:17;;;;;;;2.60;1.95;;;8.80;98.50;;;;;;6278523;22;20536;-85
2023/12/12 12:11:47;;;;;;;2.53;1.60;;;8.80;98.70;;;;;;6278542;22;20197;-85
2023/12/12 12:14:15;;;;;;;2.47;1.67;;;8.90;98.60;;;;;;6278482;22;20244;-85
2023/12/12 12:16:43;;;;;;;3.08;1.70;;;8.90;98.60;;;;;;6278432;22;20189;-85
2023/12/12 12:19:33;;;;;;;5.20;2.90;;;9.00;98.90;;;;;;6278063;22;20199;-84
2023/12/12 12:22:05;;;;;;;6.03;2.30;;;9.00;98.70;;;;;;6278271;22;20154;-86
2023/12/12 12:24:33;;;;;;;11.02;3.00;;;9.10;98.40;;;;;;6278517;22;20162;-86
2023/12/12 12:27:00;;;;;;;3.10;2.30;;;9.20;98.00;;;;;;6278069;22;20615;-86
2023/12/12 12:29:27;;;;;;;3.35;2.38;;;9.20;97.70;;;;;;6277450;22;20631;-86
2023/12/12 12:31:54;;;;;;;3.97;2.42;;;9.10;97.90;;;;;;6278508;22;20253;-85
2023/12/12 12:34:23;;;;;;;3.88;2.38;;;9.10;98.60;;;;;;6278426;22;20197;-86
2023/12/12 12:36:52;;;;;;;3.20;2.15;;;9.00;98.60;;;;;;6277800;22;20719;-88
2023/12/12 12:39:19;;;;;;;3.60;2.35;;;9.00;98.90;;;;;;6278704;22;20162;-87
2023/12/12 12:41:53;;;;;;;4.65;2.08;;;9.00;98.90;;;;;;6278298;22;20165;-86
2023/12/12 12:44:20;;;;;;;3.90;2.20;;;8.90;99.20;;;;;;6276562;22;20646;-86
2023/12/12 12:46:53;;;;;;;4.00;2.13;;;8.90;99.50;;;;;;6276961;22;20197;-86
2023/12/12 12:49:20;;;;;;;4.30;2.15;;;9.00;99.50;;;;;;6278155;22;20249;-87
2023/12/12 12:51:47;;;;;;;9.82;2.80;;;9.00;99.50;;;;;;6278285;22;20200;-87
2023/12/12 12:54:16;;;;;;;4.10;2.47;;;9.00;99.60;;;;;;6277817;22;20252;-87
2023/12/12 12:56:44;;;;;;;3.83;2.63;;;8.90;99.60;;;;;;6278059;22;20192;-86
2023/12/12 12:59:14;;;;;;;4.70;3.05;;;8.90;99.60;;;;;;6278137;22;20240;-86